Time;durP1;ratioP1;P1;durP2;ratioP2;P2;SDS_P1;SDS_P2;PMS_P1;PMS_P2;Temp;Humidity;BMP_temperature;BMP_pressure;BME280_temperature;BME280_humidity;BME280_pressure;Samples;Min_cycle;Max_cycle;Signal;HPM_P1;HPM_P2
2021/09/08 00:01:32;;;;;;;7.35;5.08;;;;;;;21.59;30.91;100574.30;1720393;81;21058;-47
2021/09/08 00:03:59;;;;;;;6.83;4.28;;;;;;;21.57;30.92;100588.25;1710773;81;21097;-48
2021/09/08 00:06:26;;;;;;;6.83;4.60;;;;;;;21.55;30.89;100578.97;1722027;82;21070;-49
2021/09/08 00:08:53;;;;;;;9.05;4.80;;;;;;;21.52;30.93;100586.73;1650196;84;21123;-49
2021/09/08 00:11:19;;;;;;;6.40;4.60;;;;;;;21.50;30.93;100591.33;1728939;80;21066;-48
2021/09/08 00:13:47;;;;;;;6.75;4.58;;;;;;;21.48;30.92;100589.20;1694393;83;21047;-49
2021/09/08 00:16:16;;;;;;;10.03;5.08;;;;;;;21.47;30.94;100594.20;1723407;81;21083;-48
2021/09/08 00:18:44;;;;;;;6.87;4.30;;;;;;;21.45;30.97;100589.85;1719853;82;21082;-49
2021/09/08 00:21:11;;;;;;;6.78;4.47;;;;;;;21.43;31.00;100589.94;1746984;81;21042;-48
2021/09/08 00:23:37;;;;;;;5.97;4.60;;;;;;;21.41;31.01;100590.53;1740468;81;21596;-49
2021/09/08 00:26:03;;;;;;;8.15;4.53;;;;;;;21.40;30.99;100587.94;1736054;81;21166;-48
2021/09/08 00:28:30;;;;;;;6.97;4.62;;;;;;;21.38;31.05;100589.37;1664486;83;21101;-48
2021/09/08 00:30:56;;;;;;;6.40;4.78;;;;;;;21.37;31.03;100590.35;1687595;83;21063;-48
2021/09/08 00:33:24;;;;;;;6.53;4.60;;;;;;;21.36;31.03;100591.30;1754803;80;21295;-49
2021/09/08 00:35:51;;;;;;;7.62;4.65;;;;;;;21.35;31.06;100589.59;1718639;80;22489;-49
2021/09/08 00:38:18;;;;;;;6.30;4.97;;;;;;;21.34;31.01;100590.53;1705954;81;21047;-49
2021/09/08 00:40:44;;;;;;;5.95;5.00;;;;;;;21.33;30.98;100589.69;1667160;84;21040;-48
2021/09/08 00:43:11;;;;;;;6.72;4.42;;;;;;;21.31;31.01;100592.91;1733107;81;21088;-48
2021/09/08 00:45:37;;;;;;;8.13;4.72;;;;;;;21.30;31.00;100592.55;1747378;80;21059;-49
2021/09/08 00:48:04;;;;;;;7.33;4.75;;;;;;;21.28;30.97;100586.89;1705505;80;21166;-49
2021/09/08 00:50:31;;;;;;;6.03;4.45;;;;;;;21.27;30.97;100587.88;1706960;80;21072;-48
2021/09/08 00:53:01;;;;;;;8.93;4.45;;;;;;;21.27;31.02;100587.88;1754196;80;21023;-48
2021/09/08 00:55:28;;;;;;;6.95;4.35;;;;;;;21.26;30.98;100590.16;1704714;80;21102;-49
2021/09/08 00:57:55;;;;;;;8.45;4.65;;;;;;;21.25;30.99;100588.42;1724183;80;21122;-48
2021/09/08 01:00:24;;;;;;;7.40;4.17;;;;;;;21.23;31.00;100586.33;1739103;81;21219;-48
2021/09/08 01:02:54;;;;;;;5.60;4.40;;;;;;;21.22;30.95;100589.98;1746720;80;21035;-48
2021/09/08 01:05:24;;;;;;;6.20;4.37;;;;;;;21.21;30.98;100588.24;1700642;82;21229;-48
2021/09/08 01:07:53;;;;;;;4.45;4.05;;;;;;;21.18;31.11;100593.29;1671090;82;21210;-49
2021/09/08 01:10:19;;;;;;;7.55;4.85;;;;;;;21.17;31.18;100594.27;1666959;82;21454;-49
2021/09/08 01:12:47;;;;;;;6.62;3.92;;;;;;;21.15;31.18;100595.70;1720690;81;21557;-48
2021/09/08 01:15:16;;;;;;;5.95;4.00;;;;;;;21.15;31.12;100594.84;1718987;81;21628;-49
2021/09/08 01:17:44;;;;;;;8.03;4.55;;;;;;;21.13;31.12;100593.59;1719342;81;21126;-49
2021/09/08 01:20:14;;;;;;;5.05;4.33;;;;;;;21.12;31.02;100592.35;1714386;81;21537;-49
2021/09/08 01:22:50;;;;;;;5.15;4.17;;;;;;;21.10;31.04;100583.08;1712183;81;21050;-50
2021/09/08 01:25:23;;;;;;;6.78;4.62;;;;;;;21.08;31.06;100584.99;1716273;81;21770;-49
2021/09/08 01:27:51;;;;;;;5.78;4.50;;;;;;;21.06;31.06;100586.88;1720697;80;21064;-49
2021/09/08 01:30:25;;;;;;;7.75;4.60;;;;;;;21.05;31.04;100582.50;1730894;78;21043;-52
2021/09/08 01:32:52;;;;;;;4.92;4.05;;;;;;;21.05;31.03;100575.81;1732003;79;21158;-52
2021/09/08 01:35:21;;;;;;;8.18;4.58;;;;;;;21.04;30.98;100576.75;1735464;79;21602;-50
2021/09/08 01:37:48;;;;;;;6.10;4.08;;;;;;;21.02;30.98;100566.63;1733265;79;21142;-50
2021/09/08 01:40:16;;;;;;;6.97;4.45;;;;;;;21.01;30.96;100569.40;1706684;80;21698;-49
2021/09/08 01:42:43;;;;;;;6.65;4.08;;;;;;;20.98;30.99;100567.79;1735667;80;21082;-49
2021/09/08 01:45:14;;;;;;;6.25;4.08;;;;;;;20.97;30.95;100569.58;1758836;80;21063;-49
2021/09/08 01:47:40;;;;;;;5.35;4.08;;;;;;;20.98;30.99;100567.79;1733209;81;22275;-49
2021/09/08 01:50:08;;;;;;;5.22;4.15;;;;;;;20.96;30.89;100567.00;1741254;80;21113;-49
2021/09/08 01:52:37;;;;;;;5.87;4.35;;;;;;;20.94;30.82;100564.41;1696663;82;21048;-50
2021/09/08 01:55:07;;;;;;;5.87;4.20;;;;;;;20.92;30.88;100565.48;1736082;80;21069;-49
2021/09/08 01:57:34;;;;;;;6.12;4.00;;;;;;;20.89;30.77;100569.19;1719966;82;21066;-49
2021/09/08 02:00:02;;;;;;;8.50;4.47;;;;;;;20.87;30.88;100563.56;1669692;83;21092;-50
2021/09/08 02:02:31;;;;;;;5.65;4.17;;;;;;;20.84;30.94;100570.43;1691744;82;23301;-49
2021/09/08 02:04:59;;;;;;;5.12;3.92;;;;;;;20.83;31.01;100568.24;1719033;79;22227;-49
2021/09/08 02:07:27;;;;;;;9.45;4.47;;;;;;;20.82;31.00;100569.67;1754036;79;21446;-49
2021/09/08 02:09:53;;;;;;;6.58;4.15;;;;;;;20.81;31.09;100570.61;1755643;78;21173;-49
2021/09/08 02:12:21;;;;;;;5.95;4.12;;;;;;;20.78;31.07;100575.69;1753956;80;21100;-48
2021/09/08 02:14:49;;;;;;;8.40;4.83;;;;;;;20.77;31.04;100576.14;1733837;79;22020;-49
2021/09/08 02:17:15;;;;;;;5.10;4.12;;;;;;;20.75;31.08;100568.69;1765366;79;21150;-49
2021/09/08 02:19:43;;;;;;;5.78;4.42;;;;;;;20.74;31.06;100569.63;1753771;80;21104;-48
2021/09/08 02:22:09;;;;;;;5.28;4.05;;;;;;;20.72;31.04;100567.53;1761565;80;21068;-49
2021/09/08 02:24:36;;;;;;;7.25;5.12;;;;;;;20.70;31.05;100569.45;1740131;80;21083;-48
2021/09/08 02:27:03;;;;;;;7.00;4.85;;;;;;;20.69;31.08;100575.73;1751311;78;21157;-49
2021/09/08 02:29:30;;;;;;;9.53;4.10;;;;;;;20.68;31.08;100571.81;1769726;80;21107;-50
2021/09/08 02:31:56;;;;;;;8.40;4.60;;;;;;;20.65;31.10;100568.87;1758702;80;21020;-49
2021/09/08 02:34:22;;;;;;;6.33;4.37;;;;;;;20.62;31.17;100573.02;1737708;80;21091;-49
2021/09/08 02:36:49;;;;;;;6.35;4.25;;;;;;;20.60;31.18;100566.91;1732621;81;21079;-49
2021/09/08 02:39:15;;;;;;;7.58;4.83;;;;;;;20.58;31.16;100572.83;1726527;81;21409;-49
2021/09/08 02:41:42;;;;;;;8.13;5.00;;;;;;;20.54;31.21;100569.94;1702545;81;21009;-48
2021/09/08 02:44:08;;;;;;;9.15;4.85;;;;;;;20.54;31.06;100579.30;1676766;83;21574;-49
2021/09/08 02:46:35;;;;;;;7.78;4.55;;;;;;;20.51;31.19;100582.14;1713733;81;21074;-49
2021/09/08 02:49:01;;;;;;;6.55;4.47;;;;;;;20.50;31.26;100576.44;1742794;81;21552;-49
2021/09/08 02:51:27;;;;;;;8.53;4.58;;;;;;;20.48;31.30;100577.01;1727616;81;21148;-49
2021/09/08 02:53:54;;;;;;;8.60;4.70;;;;;;;20.47;31.31;100574.79;1728569;81;21667;-49
2021/09/08 02:56:20;;;;;;;7.12;4.25;;;;;;;20.45;31.23;100578.03;1681768;83;21073;-48
2021/09/08 02:58:46;;;;;;;6.00;4.70;;;;;;;20.44;31.23;100580.80;1706463;81;21309;-49
2021/09/08 03:01:13;;;;;;;8.93;5.58;;;;;;;20.40;31.27;100568.94;1743415;81;21473;-49
2021/09/08 03:03:40;;;;;;;6.28;4.53;;;;;;;20.40;31.31;100578.30;1752263;80;21205;-49
2021/09/08 03:06:06;;;;;;;6.12;4.10;;;;;;;20.40;31.36;100568.94;1723441;80;21526;-49
2021/09/08 03:08:32;;;;;;;7.70;4.65;;;;;;;20.40;31.36;100569.42;1733356;81;21016;-49
2021/09/08 03:10:59;;;;;;;7.72;4.80;;;;;;;20.38;31.33;100568.66;1723047;81;21640;-51
2021/09/08 03:13:26;;;;;;;5.65;4.47;;;;;;;20.37;31.30;100569.60;1671528;83;21165;-49
2021/09/08 03:15:54;;;;;;;8.33;4.45;;;;;;;20.35;31.32;100565.68;1688069;82;21498;-49
2021/09/08 03:18:22;;;;;;;7.08;4.37;;;;;;;20.35;31.38;100566.16;1698639;81;21067;-49
2021/09/08 03:20:48;;;;;;;5.78;4.33;;;;;;;20.32;31.37;100565.86;1716079;80;21077;-48
2021/09/08 03:23:15;;;;;;;9.05;4.28;;;;;;;20.32;31.36;100565.00;1735947;80;21107;-49
2021/09/08 03:25:41;;;;;;;6.58;4.47;;;;;;;20.32;31.33;100563.66;1723640;80;21042;-50
2021/09/08 03:28:07;;;;;;;5.80;4.05;;;;;;;20.30;31.35;100571.77;1665069;83;21155;-49
2021/09/08 03:30:34;;;;;;;9.88;4.85;;;;;;;20.28;31.38;100565.66;1732657;81;21164;-49
2021/09/08 03:33:02;;;;;;;9.63;5.17;;;;;;;20.27;31.41;100562.59;1713373;82;21051;-49
2021/09/08 03:35:29;;;;;;;7.10;4.65;;;;;;;20.26;31.43;100558.67;1742031;80;21057;-48
2021/09/08 03:37:56;;;;;;;9.80;4.75;;;;;;;20.26;31.46;100566.69;1718846;82;20988;-48
2021/09/08 03:40:23;;;;;;;6.75;4.12;;;;;;;20.25;31.45;100568.51;1725763;80;21663;-49
2021/09/08 03:42:49;;;;;;;8.45;5.05;;;;;;;20.23;31.46;100567.75;1686245;82;22148;-48
2021/09/08 03:45:16;;;;;;;8.85;5.10;;;;;;;20.24;31.50;100570.81;1704543;81;21026;-48
2021/09/08 03:47:43;;;;;;;7.22;4.87;;;;;;;20.23;31.52;100567.26;1672328;81;21690;-48
2021/09/08 03:50:10;;;;;;;10.70;4.85;;;;;;;20.23;31.51;100565.92;1685168;81;21039;-48
2021/09/08 03:52:38;;;;;;;10.65;4.85;;;;;;;20.23;31.54;100565.92;1680672;82;21545;-48
2021/09/08 03:55:06;;;;;;;7.53;4.55;;;;;;;20.23;31.58;100569.08;1662950;81;20993;-47
2021/09/08 03:57:33;;;;;;;9.00;4.97;;;;;;;20.21;31.59;100569.66;1680442;82;21063;-48
2021/09/08 03:59:59;;;;;;;10.98;4.80;;;;;;;20.20;31.55;100564.76;1712183;81;21782;-49
2021/09/08 04:02:25;;;;;;;8.70;4.42;;;;;;;20.20;31.56;100565.25;1733934;80;21031;-47
2021/09/08 04:04:53;;;;;;;9.33;4.97;;;;;;;20.19;31.58;100566.18;1771614;78;21140;-49
2021/09/08 04:07:20;;;;;;;11.22;4.95;;;;;;;20.18;31.62;100569.83;1742819;80;21516;-49
2021/09/08 04:09:47;;;;;;;7.60;4.67;;;;;;;20.17;31.75;100573.44;1742707;80;21004;-49
2021/09/08 04:12:13;;;;;;;11.68;4.92;;;;;;;20.15;32.05;100573.52;1744972;79;21150;-51
2021/09/08 04:14:41;;;;;;;12.00;5.12;;;;;;;20.15;32.92;100574.00;1740173;80;21617;-53
2021/09/08 04:17:08;;;;;;;10.78;4.58;;;;;;;20.16;33.34;100570.39;1745155;80;21101;-54
2021/09/08 04:19:34;;;;;;;10.58;4.90;;;;;;;20.17;33.69;100570.77;1708029;81;21013;-54
2021/09/08 04:22:00;;;;;;;9.23;5.10;;;;;;;20.21;33.74;100576.33;1713535;80;20999;-53
2021/09/08 04:24:28;;;;;;;10.58;4.50;;;;;;;20.22;33.83;100570.91;1710340;81;20991;-53
2021/09/08 04:26:54;;;;;;;12.20;4.75;;;;;;;20.24;33.87;100570.81;1725750;80;21519;-51
2021/09/08 04:29:21;;;;;;;9.28;5.15;;;;;;;20.27;33.75;100563.08;1721813;81;21108;-50
2021/09/08 04:31:47;;;;;;;15.78;5.53;;;;;;;20.31;33.79;100566.83;1730310;81;21001;-52
2021/09/08 04:34:14;;;;;;;12.40;4.80;;;;;;;20.36;33.69;100567.41;1684572;82;21940;-51
2021/09/08 04:36:40;;;;;;;11.22;4.60;;;;;;;20.40;34.21;100566.27;1740236;79;21015;-52
2021/09/08 04:39:07;;;;;;;16.90;4.35;;;;;;;20.43;34.57;100563.05;1733596;79;21411;-52
2021/09/08 04:41:33;;;;;;;8.58;4.08;;;;;;;20.45;34.96;100566.49;1741124;79;21090;-52
2021/09/08 04:44:01;;;;;;;12.78;4.35;;;;;;;20.47;35.52;100573.94;1740918;78;21200;-52
2021/09/08 04:46:28;;;;;;;10.03;4.40;;;;;;;20.50;35.85;100573.77;1756225;78;21518;-51
2021/09/08 04:48:55;;;;;;;14.73;4.83;;;;;;;20.53;36.26;100572.25;1729574;80;21138;-50
2021/09/08 04:51:23;;;;;;;7.17;3.90;;;;;;;20.57;36.29;100568.42;1744607;80;21047;-52
2021/09/08 04:53:50;;;;;;;9.90;4.12;;;;;;;20.60;36.58;100565.58;1708717;80;21839;-51
2021/09/08 04:56:16;;;;;;;12.47;4.42;;;;;;;20.63;36.63;100569.89;1741984;80;21149;-52
2021/09/08 04:58:42;;;;;;;8.75;4.22;;;;;;;20.66;36.52;100569.27;1721479;81;21002;-50
2021/09/08 05:01:09;;;;;;;10.55;4.50;;;;;;;20.69;36.66;100564.19;1765764;78;20996;-51
2021/09/08 05:03:36;;;;;;;12.33;4.17;;;;;;;20.72;36.70;100566.20;1751077;78;21096;-50
2021/09/08 05:06:02;;;;;;;11.40;4.90;;;;;;;20.75;36.80;100572.70;1742396;79;21879;-51
2021/09/08 05:08:29;;;;;;;10.45;4.72;;;;;;;20.78;37.17;100564.98;1732876;79;21030;-50
2021/09/08 05:10:56;;;;;;;10.20;4.00;;;;;;;20.82;37.01;100562.98;1725382;80;21528;-50
2021/09/08 05:13:22;;;;;;;10.82;3.75;;;;;;;20.85;37.12;100568.16;1748558;79;21355;-50
2021/09/08 05:15:49;;;;;;;9.68;4.20;;;;;;;20.89;37.25;100565.66;1753900;80;21533;-51
2021/09/08 05:18:17;;;;;;;7.85;4.10;;;;;;;20.92;37.11;100563.66;1748685;80;21106;-52
2021/09/08 05:20:44;;;;;;;10.48;4.33;;;;;;;20.97;36.92;100563.38;1753697;79;21529;-51
2021/09/08 05:23:11;;;;;;;9.03;4.17;;;;;;;20.99;36.90;100560.13;1749053;80;21095;-51
2021/09/08 05:25:38;;;;;;;9.45;4.03;;;;;;;21.02;37.02;100555.93;1723332;80;22280;-52
2021/09/08 05:28:04;;;;;;;13.90;4.15;;;;;;;21.05;36.95;100554.41;1637247;83;21098;-52
2021/09/08 05:30:31;;;;;;;17.60;4.62;;;;;;;21.07;36.60;100554.31;1695696;83;23256;-51
2021/09/08 05:32:57;;;;;;;18.82;4.50;;;;;;;21.08;36.57;100556.90;1693953;83;21065;-51
2021/09/08 05:35:23;;;;;;;17.02;4.00;;;;;;;21.07;36.46;100551.16;1702194;83;21062;-52
2021/09/08 05:37:50;;;;;;;10.15;4.90;;;;;;;21.08;36.57;100556.02;1709789;80;21553;-52
2021/09/08 05:40:16;;;;;;;7.08;3.90;;;;;;;21.09;36.59;100557.26;1699963;82;21123;-55
2021/09/08 05:42:43;;;;;;;10.00;4.35;;;;;;;21.10;36.66;100552.30;1719206;80;22074;-54
2021/09/08 05:45:10;;;;;;;14.05;3.90;;;;;;;21.12;36.99;100552.21;1742649;80;20998;-51
2021/09/08 05:47:36;;;;;;;16.42;9.00;;;;;;;21.14;36.97;100556.98;1739649;80;21047;-47
2021/09/08 05:50:03;;;;;;;22.00;7.12;;;;;;;21.18;36.67;100545.61;1739013;80;21049;-51
2021/09/08 05:52:30;;;;;;;11.90;5.25;;;;;;;21.19;35.76;100550.86;1739687;80;21039;-50
2021/09/08 05:54:57;;;;;;;13.35;5.75;;;;;;;21.20;35.42;100556.61;1738524;80;21127;-53
2021/09/08 05:57:23;;;;;;;12.18;5.28;;;;;;;21.21;35.13;100552.11;1741669;80;21996;-51
2021/09/08 05:59:49;;;;;;;9.10;5.03;;;;;;;21.21;35.14;100552.11;1736693;80;21044;-51
2021/09/08 06:02:16;;;;;;;6.55;4.65;;;;;;;21.22;34.79;100549.34;1740255;80;21043;-51
2021/09/08 06:04:43;;;;;;;10.85;4.80;;;;;;;21.24;34.91;100554.59;1738594;80;21189;-51
2021/09/08 06:07:09;;;;;;;9.23;5.00;;;;;;;21.25;34.91;100552.28;1735949;80;22419;-50
2021/09/08 06:09:36;;;;;;;10.82;4.33;;;;;;;21.26;35.05;100554.02;1712387;81;21051;-51
2021/09/08 06:12:03;;;;;;;11.57;4.53;;;;;;;21.30;34.90;100551.52;1709088;80;21039;-52
2021/09/08 06:14:30;;;;;;;11.25;4.30;;;;;;;21.34;34.71;100559.27;1704003;82;21963;-52
2021/09/08 06:16:56;;;;;;;12.93;4.50;;;;;;;21.38;34.54;100559.92;1699069;82;21054;-51
2021/09/08 06:19:23;;;;;;;12.15;4.12;;;;;;;21.43;34.44;100563.17;1732584;80;21093;-50
2021/09/08 06:21:50;;;;;;;16.37;4.05;;;;;;;21.47;34.41;100555.86;1738751;80;21891;-53
2021/09/08 06:24:18;;;;;;;7.85;4.15;;;;;;;21.50;34.40;100553.84;1723248;81;21390;-52
2021/09/08 06:26:46;;;;;;;7.25;4.03;;;;;;;21.56;35.05;100561.11;1680246;82;21502;-57
2021/09/08 06:29:12;;;;;;;5.25;3.90;;;;;;;21.63;35.41;100551.71;1690150;82;21202;-52
2021/09/08 06:31:38;;;;;;;7.95;4.22;;;;;;;21.70;35.63;100548.55;1673999;83;22050;-53
2021/09/08 06:34:05;;;;;;;7.17;3.72;;;;;;;21.81;35.74;100545.66;1690603;82;21023;-56
2021/09/08 06:36:31;;;;;;;6.75;3.60;;;;;;;21.90;35.82;100537.00;1663447;83;21927;-48
2021/09/08 06:38:57;;;;;;;7.28;3.42;;;;;;;22.01;35.97;100537.64;1725553;80;21100;-52
2021/09/08 06:41:24;;;;;;;6.70;3.65;;;;;;;22.10;35.51;100537.51;1691894;82;21071;-53
2021/09/08 06:43:50;;;;;;;10.72;3.60;;;;;;;22.15;36.00;100534.89;1737500;80;21120;-53
2021/09/08 06:46:16;;;;;;;10.90;3.65;;;;;;;22.19;37.22;100532.41;1742118;80;21150;-50
2021/09/08 06:48:43;;;;;;;6.50;3.52;;;;;;;22.22;38.22;100534.84;1725478;80;21955;-51
2021/09/08 06:51:10;;;;;;;5.50;3.20;;;;;;;22.26;38.91;100537.72;1735028;79;21035;-50
2021/09/08 06:53:37;;;;;;;11.25;3.60;;;;;;;22.31;39.37;100532.55;1754807;78;21024;-49
2021/09/08 06:56:06;;;;;;;11.05;3.58;;;;;;;22.33;39.66;100531.49;1750097;79;21124;-54
2021/09/08 06:58:33;;;;;;;7.47;3.20;;;;;;;22.38;39.77;100536.06;1749017;79;21038;-51
2021/09/08 07:00:59;;;;;;;8.13;3.47;;;;;;;22.43;39.67;100541.13;1722701;81;21458;-52
2021/09/08 07:03:26;;;;;;;7.33;3.17;;;;;;;22.47;39.79;100540.42;1743877;78;21214;-52
2021/09/08 07:05:54;;;;;;;6.15;3.52;;;;;;;22.50;39.87;100534.86;1742581;79;21093;-51
2021/09/08 07:08:21;;;;;;;11.00;3.50;;;;;;;22.54;39.99;100532.33;1727534;80;22195;-50
2021/09/08 07:10:48;;;;;;;12.43;3.40;;;;;;;22.56;39.91;100533.95;1742458;78;21043;-56
2021/09/08 07:13:14;;;;;;;8.50;3.20;;;;;;;22.59;39.88;100535.55;1741576;79;21082;-51
2021/09/08 07:15:41;;;;;;;6.08;3.17;;;;;;;22.63;39.79;100538.42;1733857;78;21050;-53
2021/09/08 07:18:07;;;;;;;6.85;3.33;;;;;;;22.66;39.77;100535.99;1767782;78;21652;-54
2021/09/08 07:20:33;;;;;;;14.55;3.92;;;;;;;22.69;39.77;100543.83;1754999;78;21075;-56
2021/09/08 07:22:59;;;;;;;7.37;3.12;;;;;;;22.72;39.80;100539.60;1750980;79;21800;-55
2021/09/08 07:25:26;;;;;;;11.68;3.17;;;;;;;22.76;39.81;100549.14;1753175;79;21110;-54
2021/09/08 07:27:53;;;;;;;13.75;3.87;;;;;;;22.79;39.71;100550.28;1758809;78;21527;-54
2021/09/08 07:30:19;;;;;;;15.08;4.42;;;;;;;22.82;39.76;100544.70;1736311;80;21102;-52
2021/09/08 07:32:45;;;;;;;12.63;4.33;;;;;;;22.85;39.79;100545.84;1758568;78;21736;-55
2021/09/08 07:35:12;;;;;;;9.65;3.92;;;;;;;22.89;39.74;100541.11;1742317;78;21063;-55
2021/09/08 07:37:38;;;;;;;12.03;3.42;;;;;;;22.92;39.65;100543.09;1736966;80;21046;-52
2021/09/08 07:40:07;;;;;;;11.68;3.40;;;;;;;22.96;39.55;100541.92;1727855;79;21644;-54
2021/09/08 07:42:33;;;;;;;13.72;3.47;;;;;;;22.98;39.49;100539.98;1728338;80;21043;-54
2021/09/08 07:44:59;;;;;;;9.38;3.40;;;;;;;23.02;39.52;100537.09;1752564;79;22020;-53
2021/09/08 07:47:26;;;;;;;7.03;3.40;;;;;;;23.04;39.46;100541.86;1735835;79;21051;-54
2021/09/08 07:49:52;;;;;;;12.30;3.72;;;;;;;23.08;39.41;100543.38;1739467;79;22046;-51
2021/09/08 07:52:18;;;;;;;6.40;3.22;;;;;;;23.11;39.40;100538.65;1736411;79;21090;-51
2021/09/08 07:54:45;;;;;;;10.20;3.42;;;;;;;23.14;39.31;100536.25;1737678;80;21468;-50
2021/09/08 07:57:11;;;;;;;6.75;3.37;;;;;;;23.18;39.23;100526.99;1733924;80;21102;-56
2021/09/08 07:59:38;;;;;;;8.10;3.60;;;;;;;23.21;39.16;100530.80;1737837;80;21106;-58
2021/09/08 08:02:04;;;;;;;7.40;3.83;;;;;;;23.25;38.92;100532.32;1677625;83;21020;-54
2021/09/08 08:04:30;;;;;;;21.27;3.55;;;;;;;23.32;38.81;100533.59;1708932;81;20948;-52
2021/09/08 08:06:56;;;;;;;11.45;3.22;;;;;;;23.41;38.72;100528.53;1707311;81;21025;-53
2021/09/08 08:09:23;;;;;;;11.75;3.45;;;;;;;23.48;38.67;100518.55;1682120;82;21942;-54
2021/09/08 08:11:49;;;;;;;17.87;3.62;;;;;;;23.57;38.55;100518.39;1736623;80;21074;-53
2021/09/08 08:14:16;;;;;;;9.95;3.95;;;;;;;23.64;38.31;100515.62;1713383;81;21028;-52
2021/09/08 08:16:43;;;;;;;18.12;3.02;;;;;;;23.72;38.07;100517.26;1714404;81;21040;-54
2021/09/08 08:19:10;;;;;;;9.30;3.65;;;;;;;23.81;37.85;100524.27;1735034;80;20988;-53
2021/09/08 08:21:37;;;;;;;7.60;3.27;;;;;;;23.87;37.70;100515.30;1687794;82;21061;-56
2021/09/08 08:24:04;;;;;;;10.23;3.35;;;;;;;23.93;37.55;100519.34;1723167;80;20956;-53
2021/09/08 08:26:31;;;;;;;7.78;3.65;;;;;;;23.97;37.39;100519.48;1736827;80;21043;-52
2021/09/08 08:28:57;;;;;;;7.12;2.80;;;;;;;24.02;37.30;100517.30;1710409;80;21093;-51
2021/09/08 08:31:24;;;;;;;9.38;3.98;;;;;;;24.07;37.19;100522.34;1739408;80;21166;-50
2021/09/08 08:33:50;;;;;;;7.42;3.00;;;;;;;24.11;37.06;100521.15;1733643;80;21101;-53
2021/09/08 08:36:17;;;;;;;12.65;3.20;;;;;;;24.16;36.97;100527.50;1712168;81;21096;-55
2021/09/08 08:38:44;;;;;;;7.08;3.00;;;;;;;24.20;36.87;100526.31;1764467;79;20989;-53
2021/09/08 08:41:10;;;;;;;5.58;3.20;;;;;;;24.24;36.77;100516.56;1772188;78;21987;-52
2021/09/08 08:43:38;;;;;;;5.47;2.83;;;;;;;24.27;36.63;100516.80;1733777;79;21024;-50
2021/09/08 08:46:04;;;;;;;7.33;3.37;;;;;;;24.30;36.46;100521.95;1738815;77;21057;-48
2021/09/08 08:48:31;;;;;;;6.03;3.10;;;;;;;24.35;36.41;100518.41;1745495;79;20960;-53
2021/09/08 08:50:57;;;;;;;5.45;3.37;;;;;;;24.39;36.33;100513.16;1752220;79;20991;-50
2021/09/08 08:53:23;;;;;;;7.87;3.25;;;;;;;24.42;36.25;100512.08;1735813;79;21002;-53
2021/09/08 08:55:50;;;;;;;5.17;3.17;;;;;;;24.46;36.16;100514.42;1729528;79;21040;-54
2021/09/08 08:58:17;;;;;;;4.30;2.98;;;;;;;24.50;36.13;100516.88;1739930;79;22541;-52
2021/09/08 09:00:44;;;;;;;8.40;2.98;;;;;;;24.53;36.06;100512.58;1738201;78;21048;-53
2021/09/08 09:03:23;;;;;;;6.30;3.50;;;;;;;24.56;36.03;100508.34;1762871;79;32666;-49
2021/09/08 09:05:52;;;;;;;7.03;3.20;;;;;;;24.60;35.98;100504.46;1756060;78;20980;-53
2021/09/08 09:08:21;;;;;;;15.15;3.05;;;;;;;24.63;35.93;100509.61;1738872;80;21054;-52
2021/09/08 09:10:49;;;;;;;4.90;2.80;;;;;;;24.66;35.81;100507.53;1740114;80;21164;-53
2021/09/08 09:13:17;;;;;;;7.33;3.00;;;;;;;24.69;35.72;100502.38;1735395;78;21130;-53
2021/09/08 09:15:45;;;;;;;6.28;3.45;;;;;;;24.73;35.63;100494.45;1762692;78;21075;-55
2021/09/08 09:18:13;;;;;;;7.35;3.25;;;;;;;24.76;35.59;100496.88;1749066;79;21520;-54
2021/09/08 09:20:43;;;;;;;4.45;2.65;;;;;;;24.78;35.51;100492.25;1724896;80;21541;-53
2021/09/08 09:23:08;;;;;;;6.28;3.25;;;;;;;24.81;35.45;100483.95;1720779;80;21083;-55
2021/09/08 09:25:38;;;;;;;16.97;2.83;;;;;;;24.85;35.40;100487.25;1728043;80;21632;-57
2021/09/08 09:28:06;;;;;;;6.58;3.20;;;;;;;24.87;35.32;100483.94;1726949;81;21209;-54
2021/09/08 09:30:39;;;;;;;7.28;3.10;;;;;;;24.89;35.25;100476.59;1738326;80;21078;-57
2021/09/08 09:33:05;;;;;;;4.65;2.83;;;;;;;24.92;35.18;100479.04;1734700;80;21055;-56
2021/09/08 09:35:32;;;;;;;7.55;3.20;;;;;;;24.94;35.05;100470.84;1733291;80;21789;-53
2021/09/08 09:38:01;;;;;;;4.05;2.87;;;;;;;24.97;35.07;100477.34;1715177;81;21106;-56
2021/09/08 09:40:34;;;;;;;5.08;2.70;;;;;;;24.98;35.05;100477.22;1728973;80;21035;-53
2021/09/08 09:43:06;;;;;;;5.95;3.08;;;;;;;25.01;34.99;100468.02;1736976;81;21082;-56
2021/09/08 09:45:34;;;;;;;6.85;3.20;;;;;;;25.02;34.94;100472.44;1737107;80;21604;-56
2021/09/08 09:48:01;;;;;;;4.22;3.10;;;;;;;25.05;34.87;100474.89;1733140;81;21096;-53
2021/09/08 09:50:28;;;;;;;4.70;2.92;;;;;;;25.07;34.83;100466.69;1710411;82;21633;-56
2021/09/08 09:52:56;;;;;;;6.55;2.58;;;;;;;25.09;34.79;100461.53;1733266;81;21073;-56
2021/09/08 09:55:23;;;;;;;3.77;2.50;;;;;;;25.11;34.80;100464.95;1736180;81;21474;-55
2021/09/08 09:57:50;;;;;;;3.25;2.87;;;;;;;25.13;34.75;100458.98;1726719;81;21539;-54
2021/09/08 10:00:18;;;;;;;5.03;2.67;;;;;;;25.14;34.73;100453.94;1670721;82;22013;-53
2021/09/08 10:02:44;;;;;;;6.53;3.22;;;;;;;25.16;34.63;100449.77;1675390;81;22295;-52
2021/09/08 10:05:12;;;;;;;4.78;2.90;;;;;;;25.19;35.17;100454.92;1689755;82;21027;-52
2021/09/08 10:07:38;;;;;;;5.45;2.95;;;;;;;25.18;34.73;100452.73;1673654;82;21060;-48
2021/09/08 10:10:15;;;;;;;5.45;3.10;;;;;;;25.16;34.74;100448.43;1715917;81;21615;-56
2021/09/08 10:13:09;;;;;;;9.13;3.00;;;;;;;25.14;34.74;100443.67;1725021;81;21185;-53
2021/09/08 10:15:36;;;;;;;6.65;3.10;;;;;;;25.11;35.03;100435.83;1717739;81;21045;-51
2021/09/08 10:18:10;;;;;;;8.30;3.12;;;;;;;25.09;35.55;100431.91;1694191;81;21026;-53
2021/09/08 10:20:39;;;;;;;10.85;2.90;;;;;;;25.08;35.54;100432.88;1684254;83;21249;-47
2021/09/08 10:23:10;;;;;;;10.48;3.00;;;;;;;25.07;35.38;100429.84;1663744;83;21051;-52
2021/09/08 10:25:37;;;;;;;9.30;2.62;;;;;;;25.01;35.28;100419.56;1677061;83;21174;-53
2021/09/08 10:28:04;;;;;;;6.83;3.35;;;;;;;24.99;35.16;100425.56;1667739;83;21523;-50
2021/09/08 10:30:31;;;;;;;10.00;3.10;;;;;;;24.97;35.07;100427.53;1668780;82;21074;-55
2021/09/08 10:32:57;;;;;;;14.75;2.87;;;;;;;24.96;34.56;100427.16;1694040;81;21004;-53
2021/09/08 10:35:25;;;;;;;8.03;2.90;;;;;;;24.99;34.02;100419.68;1679830;83;21074;-49
2021/09/08 10:37:53;;;;;;;4.92;3.05;;;;;;;25.04;33.74;100420.16;1694660;80;22181;-51
2021/09/08 10:40:23;;;;;;;5.45;2.62;;;;;;;25.09;33.78;100422.48;1743436;80;21549;-53
2021/09/08 10:42:57;;;;;;;10.50;3.33;;;;;;;25.13;33.66;100412.31;1733139;80;21597;-53
2021/09/08 10:45:28;;;;;;;5.80;2.75;;;;;;;25.17;33.10;100417.34;1760591;80;21094;-51
2021/09/08 10:47:57;;;;;;;8.65;3.00;;;;;;;25.22;33.16;100423.70;1726928;81;21059;-54
2021/09/08 10:50:46;;;;;;;4.72;2.95;;;;;;;25.26;32.98;100422.95;1742329;80;21549;-51
2021/09/08 10:53:29;;;;;;;5.53;2.47;;;;;;;25.29;32.78;100421.39;1767184;79;21064;-52
2021/09/08 10:55:55;;;;;;;5.85;2.65;;;;;;;25.33;32.69;100427.73;1761084;78;21067;-52
2021/09/08 10:58:21;;;;;;;4.85;2.72;;;;;;;25.38;32.69;100417.93;1740760;81;21051;-46
2021/09/08 11:00:49;;;;;;;4.47;2.77;;;;;;;25.41;32.40;100408.25;1733477;80;22061;-47
2021/09/08 11:03:24;;;;;;;4.40;2.70;;;;;;;25.43;32.07;100411.67;1739589;80;21016;-50
2021/09/08 11:05:59;;;;;;;5.25;2.50;;;;;;;25.46;32.25;100408.73;1731326;81;21931;-50
2021/09/08 11:08:32;;;;;;;7.72;2.90;;;;;;;25.48;32.08;100408.09;1738813;80;21643;-47
2021/09/08 11:11:20;;;;;;;6.00;2.70;;;;;;;25.51;32.05;100415.09;1735996;80;21059;-52
2021/09/08 11:13:56;;;;;;;6.28;2.90;;;;;;;25.52;32.10;100412.27;1697053;81;21000;-50
2021/09/08 11:16:30;;;;;;;4.10;2.77;;;;;;;25.56;31.90;100411.02;1703879;81;21257;-46
2021/09/08 11:19:01;;;;;;;8.75;2.85;;;;;;;25.60;31.70;100412.95;1685758;81;21120;-46
2021/09/08 11:21:29;;;;;;;11.48;2.95;;;;;;;25.64;31.80;100414.90;1697816;81;21056;-47
2021/09/08 11:24:01;;;;;;;7.22;3.87;;;;;;;25.65;31.32;100415.27;1734066;80;20987;-47